NKS876 MKJP-KMIA
Flight info
| Callsign | NKS876 |
|---|---|
| Flight time | N/A |
| Altitude | 34000 |
| Route | ALTIB ZEUSS VIICE2 |
| Aircraft | A21N/M-SDE2E3FGHIRWXY/LB1 |
Departure
| Time | N/A |
|---|---|
| Airport | Norman Manley International Airport (MKJP) |
Arrival
| Time | 2026-05-05 01:44 |
|---|---|
| Airport | Miami International Airport (KMIA) |
| Time | Latitude | Longitude | Altitude | Speed | Heading |
|---|---|---|---|---|---|
| 2026-05-05 00:45 | 20.41315 | -77.46055 | 34027 ft | 452 kts | 330° |
| 2026-05-05 00:45 | 20.44202 | -77.47381 | 34024 ft | 452 kts | 330° |
| 2026-05-05 00:46 | 20.49963 | -77.50029 | 34019 ft | 452 kts | 330° |
| 2026-05-05 00:46 | 20.55738 | -77.52685 | 34028 ft | 452 kts | 330° |
| 2026-05-05 00:47 | 20.61508 | -77.55342 | 34020 ft | 451 kts | 330° |
| 2026-05-05 00:47 | 20.67277 | -77.57993 | 34020 ft | 452 kts | 330° |
| 2026-05-05 00:48 | 20.73050 | -77.60653 | 34038 ft | 452 kts | 330° |
| 2026-05-05 00:48 | 20.78821 | -77.63318 | 34032 ft | 452 kts | 330° |
| 2026-05-05 00:49 | 20.84597 | -77.65983 | 34024 ft | 452 kts | 330° |
| 2026-05-05 00:49 | 20.90381 | -77.68656 | 34021 ft | 452 kts | 330° |
| 2026-05-05 00:50 | 20.96159 | -77.71327 | 34026 ft | 452 kts | 330° |
| 2026-05-05 00:50 | 21.01933 | -77.74003 | 34025 ft | 452 kts | 330° |
| 2026-05-05 00:51 | 21.07712 | -77.76675 | 34028 ft | 452 kts | 330° |
| 2026-05-05 00:51 | 21.13487 | -77.79352 | 34024 ft | 452 kts | 330° |
| 2026-05-05 00:52 | 21.19264 | -77.82031 | 34025 ft | 452 kts | 330° |
| 2026-05-05 00:52 | 21.25005 | -77.84699 | 34025 ft | 452 kts | 330° |
| 2026-05-05 00:53 | 21.30779 | -77.87382 | 34024 ft | 452 kts | 330° |
| 2026-05-05 00:53 | 21.36553 | -77.90068 | 34043 ft | 452 kts | 330° |
| 2026-05-05 00:54 | 21.42315 | -77.92751 | 34026 ft | 451 kts | 330° |
| 2026-05-05 00:54 | 21.48068 | -77.95429 | 34024 ft | 451 kts | 330° |
| 2026-05-05 00:55 | 21.53830 | -77.98117 | 34026 ft | 452 kts | 330° |
| 2026-05-05 00:55 | 21.59592 | -78.00806 | 34024 ft | 452 kts | 330° |
| 2026-05-05 00:56 | 21.65361 | -78.03500 | 34021 ft | 452 kts | 330° |
| 2026-05-05 00:56 | 21.71121 | -78.06200 | 34035 ft | 452 kts | 330° |
| 2026-05-05 00:57 | 21.76888 | -78.08898 | 34024 ft | 452 kts | 330° |
| 2026-05-05 00:57 | 21.82662 | -78.11598 | 34023 ft | 452 kts | 330° |
| 2026-05-05 00:58 | 21.88431 | -78.14303 | 34021 ft | 452 kts | 330° |
| 2026-05-05 00:58 | 21.94203 | -78.17010 | 34020 ft | 453 kts | 330° |
| 2026-05-05 00:59 | 21.99974 | -78.19724 | 34021 ft | 452 kts | 330° |
| 2026-05-05 00:59 | 22.05738 | -78.22430 | 34028 ft | 450 kts | 330° |
| 2026-05-05 01:00 | 22.11481 | -78.25135 | 34025 ft | 451 kts | 330° |
| 2026-05-05 01:00 | 22.17233 | -78.27844 | 34026 ft | 451 kts | 330° |
| 2026-05-05 01:01 | 22.22977 | -78.30552 | 34027 ft | 451 kts | 330° |
| 2026-05-05 01:01 | 22.28725 | -78.33266 | 34024 ft | 451 kts | 330° |
| 2026-05-05 01:02 | 22.34431 | -78.35956 | 34024 ft | 451 kts | 330° |
| 2026-05-05 01:02 | 22.40208 | -78.38690 | 34033 ft | 458 kts | 330° |
| 2026-05-05 01:03 | 22.46125 | -78.41487 | 34023 ft | 462 kts | 330° |
| 2026-05-05 01:03 | 22.52022 | -78.44280 | 34020 ft | 462 kts | 330° |
| 2026-05-05 01:04 | 22.57873 | -78.47053 | 34018 ft | 462 kts | 330° |
| 2026-05-05 01:04 | 22.66708 | -78.51247 | 34018 ft | 462 kts | 330° |
| 2026-05-05 01:05 | 22.72592 | -78.54056 | 34022 ft | 462 kts | 330° |
| 2026-05-05 01:05 | 22.78605 | -78.56589 | 34010 ft | 471 kts | 340° |
| 2026-05-05 01:06 | 22.85089 | -78.57864 | 34009 ft | 474 kts | 345° |
| 2026-05-05 01:06 | 22.91599 | -78.59050 | 34006 ft | 474 kts | 344° |
| 2026-05-05 01:07 | 22.98097 | -78.60259 | 34008 ft | 474 kts | 344° |
| 2026-05-05 01:07 | 23.04596 | -78.61487 | 34022 ft | 475 kts | 344° |
| 2026-05-05 01:08 | 23.11109 | -78.62716 | 34009 ft | 475 kts | 344° |
| 2026-05-05 01:08 | 23.17625 | -78.63945 | 34008 ft | 475 kts | 344° |
| 2026-05-05 01:09 | 23.24139 | -78.65177 | 34006 ft | 475 kts | 344° |
| 2026-05-05 01:09 | 23.30655 | -78.66406 | 34005 ft | 475 kts | 344° |
| 2026-05-05 01:10 | 23.37174 | -78.67638 | 34027 ft | 477 kts | 343° |
| 2026-05-05 01:10 | 23.43699 | -78.68876 | 34017 ft | 475 kts | 343° |
| 2026-05-05 01:11 | 23.50203 | -78.70106 | 34008 ft | 474 kts | 343° |
| 2026-05-05 01:11 | 23.56701 | -78.71338 | 34007 ft | 474 kts | 343° |
| 2026-05-05 01:12 | 23.63202 | -78.72572 | 34006 ft | 474 kts | 343° |
| 2026-05-05 01:12 | 23.69703 | -78.73809 | 34023 ft | 475 kts | 342° |
| 2026-05-05 01:13 | 23.76229 | -78.75056 | 34006 ft | 476 kts | 342° |
| 2026-05-05 01:13 | 23.82709 | -78.76293 | 34004 ft | 476 kts | 342° |
| 2026-05-05 01:14 | 23.89236 | -78.77539 | 34005 ft | 476 kts | 342° |
| 2026-05-05 01:14 | 23.95760 | -78.78793 | 33997 ft | 476 kts | 342° |
| 2026-05-05 01:15 | 24.01942 | -78.80865 | 34007 ft | 455 kts | 325° |
| 2026-05-05 01:15 | 24.07333 | -78.84362 | 33999 ft | 449 kts | 320° |
| 2026-05-05 01:16 | 24.12652 | -78.87947 | 33996 ft | 450 kts | 320° |
| 2026-05-05 01:16 | 24.18005 | -78.91499 | 33996 ft | 450 kts | 320° |
| 2026-05-05 01:17 | 24.23354 | -78.95043 | 33997 ft | 450 kts | 321° |
| 2026-05-05 01:17 | 24.28711 | -78.98591 | 33996 ft | 450 kts | 320° |
| 2026-05-05 01:18 | 24.34063 | -79.02141 | 33995 ft | 450 kts | 320° |
| 2026-05-05 01:18 | 24.39409 | -79.05695 | 34002 ft | 450 kts | 320° |
| 2026-05-05 01:19 | 24.44742 | -79.09239 | 34000 ft | 447 kts | 321° |
| 2026-05-05 01:19 | 24.50065 | -79.12781 | 33998 ft | 447 kts | 321° |
| 2026-05-05 01:20 | 24.55383 | -79.16327 | 33997 ft | 447 kts | 321° |
| 2026-05-05 01:20 | 24.60696 | -79.19878 | 33997 ft | 447 kts | 321° |
| 2026-05-05 01:21 | 24.65999 | -79.23416 | 34011 ft | 445 kts | 321° |
| 2026-05-05 01:21 | 24.71290 | -79.26950 | 33999 ft | 445 kts | 321° |
| 2026-05-05 01:22 | 24.76573 | -79.30487 | 33985 ft | 443 kts | 321° |
| 2026-05-05 01:22 | 24.79189 | -79.32237 | 33187 ft | 441 kts | 321° |
| 2026-05-05 01:22 | 24.81819 | -79.34003 | 32136 ft | 444 kts | 321° |
| 2026-05-05 01:23 | 24.84455 | -79.35772 | 31237 ft | 443 kts | 322° |
| 2026-05-05 01:23 | 24.87084 | -79.37531 | 30424 ft | 441 kts | 322° |
| 2026-05-05 01:23 | 24.88819 | -79.38694 | 29815 ft | 441 kts | 322° |
| 2026-05-05 01:23 | 24.92326 | -79.41046 | 28456 ft | 442 kts | 322° |
| 2026-05-05 01:24 | 24.94062 | -79.42213 | 27818 ft | 441 kts | 322° |
| 2026-05-05 01:24 | 24.96684 | -79.43976 | 26887 ft | 442 kts | 323° |
| 2026-05-05 01:24 | 25.00163 | -79.46315 | 25623 ft | 443 kts | 323° |
| 2026-05-05 01:24 | 25.02790 | -79.48082 | 24794 ft | 441 kts | 323° |
| 2026-05-05 01:25 | 25.05394 | -79.49832 | 24159 ft | 436 kts | 323° |
| 2026-05-05 01:25 | 25.07139 | -79.51006 | 23720 ft | 434 kts | 323° |
| 2026-05-05 01:25 | 25.09699 | -79.52732 | 22948 ft | 428 kts | 323° |
| 2026-05-05 01:25 | 25.12199 | -79.54412 | 22543 ft | 413 kts | 323° |
| 2026-05-05 01:26 | 25.14600 | -79.56027 | 22262 ft | 397 kts | 323° |
| 2026-05-05 01:26 | 25.16912 | -79.57583 | 21993 ft | 381 kts | 322° |
| 2026-05-05 01:26 | 25.19134 | -79.59085 | 21656 ft | 369 kts | 322° |
| 2026-05-05 01:26 | 25.21316 | -79.60562 | 21030 ft | 367 kts | 322° |
| 2026-05-05 01:27 | 25.23477 | -79.62026 | 20233 ft | 363 kts | 322° |
| 2026-05-05 01:27 | 25.25622 | -79.63476 | 19438 ft | 360 kts | 323° |
| 2026-05-05 01:27 | 25.27746 | -79.64911 | 18710 ft | 356 kts | 322° |
| 2026-05-05 01:27 | 25.29842 | -79.66328 | 18097 ft | 348 kts | 322° |
| 2026-05-05 01:28 | 25.31886 | -79.67710 | 17576 ft | 343 kts | 323° |
| 2026-05-05 01:28 | 25.33920 | -79.69087 | 17102 ft | 342 kts | 323° |
| 2026-05-05 01:28 | 25.35947 | -79.70461 | 16657 ft | 341 kts | 323° |
| 2026-05-05 01:28 | 25.37952 | -79.71855 | 16208 ft | 339 kts | 320° |
| 2026-05-05 01:29 | 25.39647 | -79.73611 | 15783 ft | 331 kts | 304° |
| 2026-05-05 01:29 | 25.41000 | -79.75651 | 15400 ft | 328 kts | 301° |
| 2026-05-05 01:29 | 25.42301 | -79.77719 | 15019 ft | 327 kts | 301° |
| 2026-05-05 01:29 | 25.43580 | -79.79749 | 14661 ft | 326 kts | 301° |
| 2026-05-05 01:30 | 25.44883 | -79.81798 | 14298 ft | 325 kts | 301° |
| 2026-05-05 01:30 | 25.46166 | -79.83808 | 14035 ft | 314 kts | 301° |
| 2026-05-05 01:30 | 25.47404 | -79.85740 | 13861 ft | 301 kts | 301° |
| 2026-05-05 01:30 | 25.48591 | -79.87591 | 13630 ft | 290 kts | 301° |
| 2026-05-05 01:31 | 25.49745 | -79.89400 | 13216 ft | 286 kts | 301° |
| 2026-05-05 01:31 | 25.50891 | -79.91190 | 12742 ft | 284 kts | 301° |
| 2026-05-05 01:31 | 25.52031 | -79.92970 | 12267 ft | 284 kts | 301° |
| 2026-05-05 01:31 | 25.53174 | -79.94758 | 11909 ft | 285 kts | 301° |
| 2026-05-05 01:32 | 25.54319 | -79.96548 | 11640 ft | 285 kts | 301° |
| 2026-05-05 01:32 | 25.55462 | -79.98334 | 11380 ft | 284 kts | 302° |
| 2026-05-05 01:32 | 25.56601 | -80.00119 | 11149 ft | 284 kts | 302° |
| 2026-05-05 01:32 | 25.57734 | -80.01906 | 10908 ft | 283 kts | 301° |
| 2026-05-05 01:33 | 25.58863 | -80.03692 | 10675 ft | 283 kts | 302° |
| 2026-05-05 01:33 | 25.59995 | -80.05473 | 10406 ft | 282 kts | 302° |
| 2026-05-05 01:33 | 25.61123 | -80.07248 | 10137 ft | 282 kts | 302° |
| 2026-05-05 01:33 | 25.62252 | -80.09023 | 9990 ft | 282 kts | 302° |
| 2026-05-05 01:34 | 25.63380 | -80.10797 | 9910 ft | 279 kts | 302° |
| 2026-05-05 01:34 | 25.64502 | -80.12554 | 9374 ft | 280 kts | 302° |
| 2026-05-05 01:34 | 25.65571 | -80.14351 | 8937 ft | 278 kts | 296° |
| 2026-05-05 01:34 | 25.66426 | -80.16265 | 8578 ft | 277 kts | 293° |
| 2026-05-05 01:35 | 25.67243 | -80.18194 | 8282 ft | 276 kts | 292° |
| 2026-05-05 01:35 | 25.68056 | -80.20117 | 8032 ft | 275 kts | 292° |
| 2026-05-05 01:35 | 25.68869 | -80.22039 | 7972 ft | 275 kts | 293° |
| 2026-05-05 01:35 | 25.69675 | -80.23940 | 7622 ft | 271 kts | 293° |
| 2026-05-05 01:36 | 25.70478 | -80.25834 | 7182 ft | 271 kts | 293° |
| 2026-05-05 01:36 | 25.71152 | -80.27777 | 6749 ft | 269 kts | 280° |
| 2026-05-05 01:36 | 25.71231 | -80.29836 | 6324 ft | 267 kts | 266° |
| 2026-05-05 01:36 | 25.71116 | -80.31883 | 5859 ft | 265 kts | 265° |
| 2026-05-05 01:37 | 25.70995 | -80.33919 | 5291 ft | 264 kts | 265° |
| 2026-05-05 01:37 | 25.70882 | -80.35942 | 4893 ft | 260 kts | 266° |
| 2026-05-05 01:37 | 25.70780 | -80.37906 | 4647 ft | 250 kts | 266° |
| 2026-05-05 01:37 | 25.70683 | -80.39785 | 4419 ft | 240 kts | 266° |
| 2026-05-05 01:38 | 25.70594 | -80.41595 | 4238 ft | 231 kts | 266° |
| 2026-05-05 01:38 | 25.70510 | -80.43360 | 4012 ft | 230 kts | 267° |
| 2026-05-05 01:38 | 25.70406 | -80.45134 | 3973 ft | 230 kts | 265° |
| 2026-05-05 01:38 | 25.70557 | -80.46814 | 3960 ft | 215 kts | 293° |
| 2026-05-05 01:39 | 25.71451 | -80.48127 | 3967 ft | 213 kts | 327° |
| 2026-05-05 01:39 | 25.72788 | -80.48726 | 3993 ft | 212 kts | 349° |
| 2026-05-05 01:39 | 25.74240 | -80.48992 | 4000 ft | 211 kts | 352° |
| 2026-05-05 01:39 | 25.75699 | -80.49185 | 3996 ft | 211 kts | 5° |
| 2026-05-05 01:40 | 25.77098 | -80.48693 | 4005 ft | 221 kts | 36° |
| 2026-05-05 01:40 | 25.78182 | -80.47526 | 3772 ft | 216 kts | 51° |
| 2026-05-05 01:40 | 25.79046 | -80.46177 | 3394 ft | 213 kts | 64° |
| 2026-05-05 01:40 | 25.79509 | -80.44671 | 3047 ft | 197 kts | 80° |
| 2026-05-05 01:41 | 25.79637 | -80.43236 | 2842 ft | 180 kts | 87° |
| 2026-05-05 01:41 | 25.79672 | -80.41866 | 2477 ft | 175 kts | 88° |
| 2026-05-05 01:41 | 25.79705 | -80.40532 | 2064 ft | 172 kts | 88° |
| 2026-05-05 01:41 | 25.79748 | -80.39210 | 1645 ft | 171 kts | 86° |
| 2026-05-05 01:42 | 25.79794 | -80.37946 | 1351 ft | 151 kts | 86° |
| 2026-05-05 01:42 | 25.79833 | -80.36864 | 1158 ft | 131 kts | 86° |
| 2026-05-05 01:42 | 25.79870 | -80.35878 | 1012 ft | 129 kts | 88° |
| 2026-05-05 01:42 | 25.79908 | -80.34885 | 856 ft | 130 kts | 85° |
| 2026-05-05 01:43 | 25.79946 | -80.33879 | 695 ft | 131 kts | 86° |
| 2026-05-05 01:43 | 25.79981 | -80.32876 | 529 ft | 128 kts | 87° |
| 2026-05-05 01:43 | 25.80021 | -80.31883 | 364 ft | 128 kts | 86° |
| 2026-05-05 01:43 | 25.80043 | -80.30886 | 205 ft | 131 kts | 87° |
| 2026-05-05 01:44 | 25.80081 | -80.29893 | 32 ft | 127 kts | 85° |
| 2026-05-05 01:44 | 25.80116 | -80.29009 | 23 ft | 88 kts | 86° |
| 2026-05-05 01:44 | 25.80136 | -80.28570 | 22 ft | 46 kts | 87° |
| 2026-05-05 01:44 | 25.80134 | -80.28301 | 21 ft | 17 kts | 103° |
| 2026-05-05 01:45 | 25.80087 | -80.28205 | 19 ft | 7 kts | 138° |
| 2026-05-05 01:45 | 25.80043 | -80.28228 | 20 ft | 10 kts | 252° |
| 2026-05-05 01:45 | 25.80036 | -80.28314 | 20 ft | 12 kts | 268° |
| 2026-05-05 01:45 | 25.80033 | -80.28417 | 20 ft | 14 kts | 267° |
| 2026-05-05 01:46 | 25.80027 | -80.28535 | 20 ft | 16 kts | 267° |
| 2026-05-05 01:46 | 25.80022 | -80.28647 | 21 ft | 14 kts | 267° |
| 2026-05-05 01:46 | 25.80017 | -80.28755 | 22 ft | 9 kts | 267° |
| 2026-05-05 01:46 | 25.79998 | -80.28826 | 23 ft | 11 kts | 209° |
| 2026-05-05 01:47 | 25.79915 | -80.28826 | 21 ft | 13 kts | 177° |
| 2026-05-05 01:47 | 25.79819 | -80.28821 | 20 ft | 15 kts | 177° |
| 2026-05-05 01:47 | 25.79716 | -80.28816 | 20 ft | 9 kts | 177° |
| 2026-05-05 01:47 | 25.79650 | -80.28792 | 20 ft | 11 kts | 132° |
| 2026-05-05 01:48 | 25.79644 | -80.28700 | 20 ft | 12 kts | 82° |
| 2026-05-05 01:48 | 25.79650 | -80.28633 | 20 ft | 6 kts | 85° |
| 2026-05-05 01:48 | 25.79647 | -80.28596 | 23 ft | 6 kts | 121° |
| 2026-05-05 01:48 | 25.79608 | -80.28564 | 20 ft | 8 kts | 137° |
| 2026-05-05 01:49 | 25.79585 | -80.28525 | 20 ft | 6 kts | 117° |
| 2026-05-05 01:49 | 25.79567 | -80.28487 | 20 ft | 1 kts | 117° |
| 2026-05-05 01:49 | 25.79566 | -80.28483 | 20 ft | 0 kts | 118° |